createdAt,value
2019-01-16T01:10:11.443Z,3.83
2019-01-16T01:15:12.741Z,3.88
2019-01-16T01:20:20.153Z,3.99
2019-01-16T01:25:21.443Z,3.99
2019-01-16T02:33:46.755Z,3.69
2019-01-16T02:38:51.987Z,3.72
2019-01-16T02:49:22.804Z,3.46
2019-01-16T02:54:30.183Z,3.56
2019-01-16T02:59:33.388Z,3.59
2019-01-16T04:01:41.700Z,3.23
2019-01-16T04:12:20.547Z,3.07
2019-01-16T04:17:21.832Z,3.09
2019-01-16T04:22:29.175Z,3.11
2019-01-16T04:27:35.177Z,3.19
2019-01-16T05:35:53.982Z,3.02
2019-01-16T05:41:02.055Z,2.87
2019-01-16T05:51:32.633Z,2.64
2019-01-16T05:56:34.840Z,2.83
2019-01-16T07:05:11.275Z,2.79
2019-01-16T07:10:12.571Z,2.71
2019-01-16T07:15:14.841Z,2.78
2019-01-16T07:20:20.037Z,2.82
2019-01-16T07:25:22.145Z,2.83
2019-01-16T07:30:26.272Z,2.96
2019-01-16T08:32:29.079Z,3.85
2019-01-16T08:43:13.898Z,3.94
2019-01-16T08:48:21.336Z,4.25
2019-01-16T08:53:24.581Z,4.41
2019-01-16T08:58:30.967Z,4.52
2019-01-16T10:06:08.195Z,5.46
2019-01-16T10:11:11.499Z,5.80
2019-01-16T10:16:18.696Z,5.82
2019-01-16T10:21:26.288Z,5.76
2019-01-16T11:35:17.829Z,7.15
2019-01-16T11:40:24.164Z,7.30
2019-01-16T11:45:27.431Z,7.36
2019-01-16T11:50:28.790Z,7.52
2019-01-16T11:55:36.212Z,7.80
2019-01-16T12:00:37.571Z,7.95
2019-01-16T14:31:27.611Z,13.04
2019-01-16T14:42:02.105Z,12.10
2019-01-16T14:47:05.341Z,12.54
2019-01-16T14:52:06.680Z,12.18
2019-01-16T14:57:08.076Z,12.16
2019-01-16T17:51:55.865Z,8.58
2019-01-16T18:09:13.621Z,8.26
2019-01-16T18:14:17.420Z,8.34
2019-01-16T18:19:23.967Z,8.19
2019-01-16T18:30:04.255Z,7.95
2019-01-16T18:35:17.798Z,7.88
2019-01-16T18:41:03.618Z,7.78
2019-01-16T18:46:08.854Z,7.68
2019-01-16T18:51:15.260Z,7.61
2019-01-16T18:56:22.795Z,7.60
2019-01-16T19:01:24.948Z,7.39
2019-01-16T19:06:32.509Z,7.35
2019-01-16T19:11:38.899Z,7.33
2019-01-16T19:16:43.181Z,7.33
2019-01-16T19:21:50.288Z,7.40
2019-01-16T19:26:58.481Z,7.36
2019-01-16T19:37:32.917Z,7.32
2019-01-16T19:42:37.213Z,7.56
2019-01-16T19:47:40.148Z,7.56
2019-01-16T19:52:47.545Z,7.69
2019-01-16T19:57:52.836Z,7.80
2019-01-16T20:08:27.545Z,7.55
2019-01-16T20:13:35.061Z,7.71
2019-01-16T20:18:42.493Z,7.75
2019-01-16T20:23:47.783Z,7.73
2019-01-16T20:29:11.642Z,7.74
2019-01-16T20:34:16.249Z,7.76
2019-01-16T20:39:22.479Z,7.68
2019-01-16T20:50:08.468Z,7.34
2019-01-16T21:00:56.009Z,7.44
2019-01-16T21:06:02.522Z,7.68
2019-01-16T21:16:48.965Z,7.70
2019-01-16T21:21:51.609Z,7.99
2019-01-16T21:26:52.983Z,7.96
2019-01-16T21:31:59.188Z,8.12
2019-01-16T21:37:01.639Z,8.13
2019-01-16T21:47:45.440Z,8.06
2019-01-16T21:58:42.254Z,8.01
2019-01-16T22:09:18.950Z,8.18
2019-01-16T22:14:24.377Z,8.35
2019-01-16T22:25:04.504Z,7.99
2019-01-16T22:30:15.330Z,8.07
2019-01-16T22:35:18.803Z,7.92
2019-01-16T22:40:27.050Z,7.69
2019-01-16T22:45:41.275Z,7.51
2019-01-16T22:50:53.524Z,7.37
2019-01-16T22:56:15.696Z,7.42
2019-01-16T23:33:00.019Z,7.61
2019-01-16T23:38:01.473Z,7.52
2019-01-16T23:43:05.687Z,7.53
2019-01-16T23:48:10.852Z,7.39
2019-01-16T23:53:14.152Z,7.36
2019-01-16T23:58:21.454Z,7.47
